Latest Weather Observations for Mount Gellibrand

IDV60801

Issued at 10:42 pm EST Monday 6 July 2020 (issued every 10 minutes, with the page automatically refreshed every 10 minutes)

About weather observations | Map of weather stations | Latest weather observations for VIC | Other Formats
Station Details ID: 090035 Name: MOUNT GELLIBRAND Lat: -38.23 Lon: 143.79 Height: 261.0 m
Data from the previous 72 hours. | See also: Recent months at Mount Gellibrand
Date/Time
EST
Temp
°C
App
Temp
°C
Dew
Point
°C
Rel
Hum
%
Delta-T
°C
Wind Press
QNH
hPa
Press
MSL
hPa
Rain since
9am
mm
Dir  Spd
km/h
Gust
km/h
Spd
kts
Gust
kts
06/10:30pm 8.3 4.3 8.3 100 0.0 WSW 19 22 10 12 1031.8 1032.4 0.2
06/10:00pm 8.1 4.1 8.1 100 0.0 WSW 19 20 10 11 1031.6 1032.1 0.2
06/09:30pm 8.2 4.9 8.2 100 0.0 WSW 15 15 8 8 1031.6 1032.1 0.2
06/09:00pm 8.7 6.3 8.7 100 0.0 WSW 11 13 6 7 1031.7 1032.3 0.2
06/08:30pm 9.2 7.0 9.2 100 0.0 WSW 11 19 6 10 1032.0 1032.5 0.2
06/08:00pm 9.3 6.7 9.3 100 0.0 WSW 13 17 7 9 1031.8 1032.4 0.2
06/07:30pm 9.3 5.9 9.3 100 0.0 WSW 17 22 9 12 1031.6 1032.1 0.2
06/07:00pm 9.2 5.4 9.2 100 0.0 WSW 19 24 10 13 1031.3 1031.8 0.2
06/06:30pm 9.4 5.1 9.4 100 0.0 WSW 22 28 12 15 1031.2 1031.7 0.2
06/06:00pm 9.3 6.7 9.3 100 0.0 WSW 13 19 7 10 1031.0 1031.5 0.2
06/05:30pm 9.8 7.3 9.8 100 0.0 SW 13 19 7 10 1030.8 1031.3 0.2
06/05:00pm 10.1 6.6 10.1 100 0.0 WSW 19 26 10 14 1030.6 1031.1 0.2
06/04:30pm 10.3 6.6 10.3 100 0.0 WSW 20 26 11 14 1030.5 1031.0 0.2
06/04:00pm 10.7 7.7 10.5 99 0.1 WSW 17 22 9 12 1030.5 1031.0 0.2
06/03:30pm 10.8 7.8 10.6 99 0.1 WSW 17 22 9 12 1030.4 1030.9 0.2
06/03:00pm 10.9 8.0 10.9 100 0.0 WSW 17 20 9 11 1030.4 1030.9 0.2
06/02:30pm 11.1 7.9 11.1 100 0.0 WSW 19 28 10 15 1030.2 1030.7 0.2
06/02:00pm 10.4 6.4 10.4 100 0.0 WSW 22 30 12 16 1030.3 1030.8 0.2
06/01:30pm 10.6 7.6 10.6 100 0.0 WSW 17 22 9 12 1030.6 1031.1 0.2
06/01:00pm 10.7 7.3 10.7 100 0.0 WSW 19 22 10 12 1030.8 1031.3 0.2
06/12:30pm 10.6 7.2 10.6 100 0.0 WSW 19 24 10 13 1031.0 1031.5 0.2
06/12:00pm 10.6 8.7 10.6 100 0.0 WSW 11 17 6 9 1031.1 1031.6 0.2
06/11:30am 10.1 7.3 10.1 100 0.0 WSW 15 24 8 13 1031.5 1032.0 0.2
06/11:00am 9.8 7.3 9.8 100 0.0 W 13 19 7 10 1031.8 1032.4 0.2
06/10:30am 9.7 7.2 9.7 100 0.0 W 13 17 7 9 1032.0 1032.5 0.0
06/10:00am 9.2 6.6 9.2 100 0.0 W 13 17 7 9 1031.7 1032.3 0.0
06/09:30am 8.8 6.4 8.8 100 0.0 W 11 13 6 7 1031.6 1032.1 0.0
06/09:00am 8.5 6.5 8.5 100 0.0 W 9 13 5 7 1031.4 1031.9 0.2
06/08:30am 8.1 6.0 8.1 100 0.0 W 9 11 5 6 1031.0 1031.5 0.2
06/08:00am 8.2 5.7 8.2 100 0.0 WSW 11 15 6 8 1030.8 1031.3 0.2
06/07:30am 7.9 4.9 7.9 100 0.0 W 13 17 7 9 1030.7 1031.2 0.2
06/07:00am 8.0 5.5 8.0 100 0.0 W 11 13 6 7 1030.5 1031.0 0.2
06/06:30am 8.0 5.5 8.0 100 0.0 W 11 13 6 7 1030.2 1030.7 0.2
06/06:00am 7.9 4.9 7.9 100 0.0 W 13 15 7 8 1029.8 1030.3 0.2
06/05:30am 7.6 5.0 7.6 100 0.0 WSW 11 15 6 8 1029.5 1030.0 0.2
06/05:00am 7.5 5.6 7.5 100 0.0 W 7 11 4 6 1029.3 1029.8 0.2
06/04:30am 7.9 5.7 7.9 100 0.0 SW 9 9 5 5 1029.4 1029.9 0.2
06/04:00am 7.8 6.2 7.8 100 0.0 SSW 6 7 3 4 1029.5 1030.0 0.2
06/03:30am 7.1 3.6 7.1 100 0.0 WSW 15 17 8 9 1029.6 1030.1 0.0
06/03:00am 6.8 3.6 6.8 100 0.0 WSW 13 15 7 8 1029.5 1030.0 0.0
06/02:30am 6.6 3.0 6.6 100 0.0 W 15 17 8 9 1029.4 1029.9 0.0
06/02:00am 7.2 4.1 7.2 100 0.0 W 13 15 7 8 1029.4 1029.9 0.0
06/01:30am 7.0 4.2 7.0 100 0.0 W 11 13 6 7 1029.4 1029.9 0.0
06/01:00am 6.6 4.1 6.6 100 0.0 W 9 11 5 6 1029.4 1029.9 0.0
06/12:30am 6.8 4.0 6.8 100 0.0 W 11 13 6 7 1029.4 1029.9 0.0
06/12:00am 7.5 4.8 7.5 100 0.0 W 11 13 6 7 1029.3 1029.8 0.0
 
Date/Time
EST
Temp
°C
App
Temp
°C
Dew
Point
°C
Rel
Hum
%
Delta-T
°C
Wind Press
QNH
hPa
Press
MSL
hPa
Rain since
9am
mm
Dir  Spd
km/h
Gust
km/h
Spd
kts
Gust
kts
05/11:30pm 8.0 4.7 8.0 100 0.0 WSW 15 20 8 11 1029.5 1030.0 0.0
05/11:00pm 7.9 5.3 7.9 100 0.0 W 11 17 6 9 1029.4 1029.9 0.0
05/10:30pm 7.7 4.3 7.7 100 0.0 WSW 15 17 8 9 1029.3 1029.8 0.0
05/10:00pm 7.8 3.7 7.8 100 0.0 WSW 19 26 10 14 1029.2 1029.7 0.0
05/09:30pm 7.8 3.5 7.8 100 0.0 WSW 20 22 11 12 1029.1 1029.6 0.0
05/09:00pm 7.6 3.4 7.6 100 0.0 WSW 19 24 10 13 1028.8 1029.3 0.0
05/08:30pm 7.3 3.1 7.3 100 0.0 WSW 19 22 10 12 1028.7 1029.2 0.0
05/08:00pm 6.6 2.0 6.6 100 0.0 WSW 20 24 11 13 1028.4 1028.8 0.0
05/07:30pm 7.0 2.1 7.0 100 0.0 SW 22 24 12 13 1028.2 1028.6 0.0
05/07:00pm 7.4 2.6 7.4 100 0.0 SW 22 26 12 14 1028.0 1028.4 0.0
05/06:30pm 7.7 3.4 7.7 100 0.0 SW 20 22 11 12 1027.7 1028.2 0.0
05/06:00pm 7.9 3.8 7.9 100 0.0 SW 19 24 10 13 1027.4 1027.9 0.0
05/05:30pm 8.8 4.7 8.8 100 0.0 SW 20 28 11 15 1027.2 1027.7 0.0
05/05:00pm 9.5 5.6 9.5 100 0.0 WSW 20 26 11 14 1026.9 1027.4 0.0
05/04:30pm 9.5 5.6 9.5 100 0.0 WSW 20 24 11 13 1026.8 1027.3 0.0
05/04:00pm 10.4 7.3 10.4 100 0.0 WSW 17 24 9 13 1026.8 1027.3 0.0
05/03:30pm 9.7 5.1 9.7 100 0.0 WSW 24 28 13 15 1026.6 1027.1 0.0
05/03:00pm 11.6 8.3 11.6 100 0.0 SW 20 26 11 14 1026.5 1027.0 0.0
05/02:30pm 11.5 8.4 11.5 100 0.0 WSW 19 24 10 13 1026.5 1027.0 0.0
05/02:00pm 10.7 7.1 10.7 100 0.0 SW 20 26 11 14 1026.5 1027.0 0.0
05/01:30pm 11.3 8.1 11.3 100 0.0 SW 19 22 10 12 1026.6 1027.1 0.0
05/01:00pm 11.1 7.7 11.1 100 0.0 SW 20 26 11 14 1026.9 1027.4 0.0
05/12:30pm 10.9 8.0 10.9 100 0.0 SSW 17 20 9 11 1027.2 1027.7 0.0
05/12:00pm 11.0 7.7 11.0 100 0.0 SW 19 24 10 13 1027.3 1027.8 0.0
05/11:30am 11.2 8.0 11.2 100 0.0 SW 19 26 10 14 1027.4 1027.9 0.0
05/11:00am 10.8 7.5 10.8 100 0.0 WSW 19 26 10 14 1027.7 1028.2 0.0
05/10:30am 10.0 6.8 10.0 100 0.0 WSW 17 22 9 12 1027.7 1028.2 0.0
05/10:00am 9.8 6.9 9.8 100 0.0 W 15 20 8 11 1027.4 1027.9 0.0
05/09:30am 9.4 5.5 9.4 100 0.0 W 20 28 11 15 1027.1 1027.6 0.0
05/09:00am 9.3 5.6 9.3 100 0.0 W 19 24 10 13 1026.8 1027.3 1.6
05/08:30am 8.7 4.8 8.7 100 0.0 WNW 19 24 10 13 1026.6 1027.1 1.6
05/08:00am 8.5 4.9 8.5 100 0.0 W 17 20 9 11 1026.4 1026.9 1.6
05/07:30am 8.7 4.8 8.7 100 0.0 W 19 20 10 11 1026.3 1026.8 1.6
05/07:00am 8.6 5.4 8.6 100 0.0 W 15 24 8 13 1026.1 1026.6 1.4
05/06:30am 8.8 5.3 8.8 100 0.0 WSW 17 22 9 12 1025.7 1026.2 1.4
05/06:00am 9.0 5.2 9.0 100 0.0 W 19 24 10 13 1025.3 1025.7 1.4
05/05:30am 9.3 5.4 9.3 100 0.0 WSW 20 26 11 14 1025.1 1025.5 1.4
05/05:00am 9.5 5.8 9.5 100 0.0 WSW 19 28 10 15 1024.8 1025.2 1.2
05/04:30am 9.5 4.9 9.5 100 0.0 WSW 24 30 13 16 1024.7 1025.1 1.0
05/04:00am 10.1 7.3 10.1 100 0.0 W 15 22 8 12 1024.7 1025.1 1.0
05/03:30am 10.2 6.5 10.2 100 0.0 WSW 20 26 11 14 1024.8 1025.2 1.0
05/03:00am 10.2 6.7 10.2 100 0.0 W 19 26 10 14 1024.9 1025.3 0.8
05/02:30am 10.3 6.6 10.3 100 0.0 W 20 28 11 15 1025.1 1025.5 0.8
05/02:00am 10.1 6.6 10.1 100 0.0 WSW 19 24 10 13 1025.1 1025.5 0.6
05/01:30am 9.9 5.4 9.9 100 0.0 WSW 24 30 13 16 1024.9 1025.3 0.6
05/01:00am 10.3 6.8 10.3 100 0.0 WSW 19 26 10 14 1024.9 1025.3 0.6
05/12:30am 9.7 5.5 9.7 100 0.0 WSW 22 28 12 15 1025.3 1025.7 0.4
05/12:00am 9.8 6.0 9.8 100 0.0 WSW 20 32 11 17 1025.4 1025.9 0.4
 
Date/Time
EST
Temp
°C
App
Temp
°C
Dew
Point
°C
Rel
Hum
%
Delta-T
°C
Wind Press
QNH
hPa
Press
MSL
hPa
Rain since
9am
mm
Dir  Spd
km/h
Gust
km/h
Spd
kts
Gust
kts
04/11:30pm 9.4 5.7 9.4 100 0.0 W 19 24 10 13 1025.4 1025.9 0.4
04/11:00pm 9.4 6.1 9.4 100 0.0 WSW 17 24 9 13 1025.5 1026.0 0.4
04/10:30pm 9.7 5.1 9.7 100 0.0 WSW 24 28 13 15 1025.3 1025.7 0.2
04/10:00pm 9.5 4.5 9.5 100 0.0 WSW 26 32 14 17 1025.1 1025.5 0.2
04/09:30pm 9.2 4.5 9.2 100 0.0 WSW 24 33 13 18 1024.9 1025.3 0.2
04/09:00pm 9.7 4.7 9.7 100 0.0 WSW 26 33 14 18 1024.8 1025.2 0.2
04/08:30pm 9.7 4.7 9.7 100 0.0 WSW 26 33 14 18 1024.7 1025.1 0.2
04/08:00pm 9.8 5.2 9.8 100 0.0 WSW 24 32 13 17 1024.6 1025.0 0.2
04/07:30pm 9.9 5.4 9.9 100 0.0 W 24 33 13 18 1024.2 1024.6 0.2
04/07:00pm 9.9 5.7 9.9 100 0.0 W 22 32 12 17 1024.1 1024.5 0.2
04/06:30pm 9.8 4.5 9.8 100 0.0 WSW 28 33 15 18 1024.1 1024.5 0.2
04/06:00pm 9.7 4.7 9.7 100 0.0 WSW 26 32 14 17 1023.6 1024.1 0.2
04/05:30pm 9.8 4.5 9.8 100 0.0 WSW 28 37 15 20 1023.4 1023.9 0.2
04/05:00pm 9.9 3.8 9.9 100 0.0 WSW 32 37 17 20 1023.1 1023.6 0.2
04/04:30pm 10.0 3.0 10.0 100 0.0 WSW 37 43 20 23 1022.9 1023.4 0.2
04/04:00pm 10.3 3.4 10.3 100 0.0 WSW 37 44 20 24 1022.7 1023.2 0.2
04/03:30pm 10.7 3.9 10.7 100 0.0 WSW 37 48 20 26 1022.6 1023.1 0.2
04/03:00pm 10.9 4.2 10.9 100 0.0 WSW 37 44 20 24 1022.4 1022.9 0.2
04/02:30pm 11.6 5.5 11.6 100 0.0 WSW 35 48 19 26 1022.3 1022.8 0.2
04/02:00pm 11.2 4.2 11.2 100 0.0 WSW 39 50 21 27 1022.4 1022.9 0.2
04/01:30pm 11.3 3.4 11.3 100 0.0 WSW 44 59 24 32 1022.1 1022.5 0.2
04/01:00pm 11.0 3.5 11.0 100 0.0 WSW 41 50 22 27 1022.4 1022.9 0.2
04/12:30pm 12.2 6.8 12.2 100 0.0 WSW 32 43 17 23 1022.7 1023.2 0.2
04/12:00pm 10.0 3.4 10.0 100 0.0 WSW 35 46 19 25 1023.0 1023.5 0.2
04/11:30am 10.3 4.2 10.3 100 0.0 WSW 33 46 18 25 1023.2 1023.7 0.2
04/11:00am 10.3 6.3 10.3 100 0.0 W 22 30 12 16 1023.5 1024.0 0.2
04/10:30am 9.2 4.1 9.2 100 0.0 W 26 33 14 18 1023.6 1024.1 0.2
04/10:00am 8.4 2.0 8.4 100 0.0 WNW 32 39 17 21 1023.2 1023.7 0.2
04/09:30am 7.9 2.1 7.9 100 0.0 WNW 28 33 15 18 1023.0 1023.5 0.2
04/09:00am 7.6 2.1 7.6 100 0.0 WNW 26 33 14 18 1022.9 1023.4 7.4
04/08:30am 7.2 0.9 7.2 100 0.0 WNW 30 33 16 18 1022.8 1023.3 7.4
04/08:00am 6.8 0.7 6.8 100 0.0 W 28 35 15 19 1022.8 1023.3 7.4
04/07:30am 6.5 0.8 6.5 100 0.0 W 26 33 14 18 1022.6 1023.1 7.4
04/07:00am 6.2 0.4 6.2 100 0.0 W 26 39 14 21 1022.3 1022.8 7.4
04/06:30am 5.9 0.4 5.9 100 0.0 W 24 33 13 18 1022.0 1022.4 7.4
04/06:00am 5.0 -1.1 5.0 100 0.0 WNW 26 32 14 17 1021.9 1022.3 7.4
04/05:30am 4.4 -1.8 4.4 100 0.0 WNW 26 30 14 16 1022.0 1022.4 7.4
04/05:00am 4.2 -1.6 4.2 100 0.0 W 24 32 13 17 1022.2 1022.7 7.4
04/04:30am 4.1 -1.0 4.1 100 0.0 WNW 20 26 11 14 1022.4 1022.9 7.4
04/04:00am 3.5 -1.7 3.5 100 0.0 W 20 30 11 16 1022.5 1023.0 7.4
04/03:30am 3.6 -2.0 3.6 100 0.0 WNW 22 26 12 14 1022.6 1023.1 7.4
04/03:00am 4.6 -0.8 4.6 100 0.0 W 22 30 12 16 1022.7 1023.2 7.4
04/02:30am 4.3 -1.1 4.3 100 0.0 W 22 33 12 18 1022.7 1023.2 7.4
04/02:00am 4.4 -1.0 4.4 100 0.0 W 22 30 12 16 1022.9 1023.4 7.4
04/01:30am 4.4 -1.0 4.4 100 0.0 WSW 22 30 12 16 1023.0 1023.5 7.4
04/01:00am 4.2 -0.9 4.2 100 0.0 W 20 24 11 13 1022.9 1023.4 7.4
04/12:30am 3.9 -1.2 3.9 100 0.0 W 20 24 11 13 1022.9 1023.4 7.4
04/12:00am 4.3 -0.8 4.3 100 0.0 W 20 24 11 13 1022.9 1023.4 7.4
 
Date/Time
EST
Temp
°C
App
Temp
°C
Dew
Point
°C
Rel
Hum
%
Delta-T
°C
Wind Press
QNH
hPa
Press
MSL
hPa
Rain since
9am
mm
Dir  Spd
km/h
Gust
km/h
Spd
kts
Gust
kts
03/11:30pm 5.3 -0.7 5.3 100 0.0 WSW 26 35 14 19 1022.7 1023.2 7.2
03/11:00pm 5.0 0.3 5.0 100 0.0 W 19 24 10 13 1022.7 1023.2 7.2

Other formats

Comma delimited format used in spreadsheet applications
http://www.bom.gov.au/fwo/IDV60801/IDV60801.95845.axf

JavaScript Object Notation format (JSON) in row-major order
http://www.bom.gov.au/fwo/IDV60801/IDV60801.95845.json

Data quality

Most of these data are generated automatically and are frequently updated. Quality checks on data are not normally performed. It is possible for incorrect values to appear. Refer to information at About Latest Weather Observations and please check the disclaimer before using these data.